首页
METAR-TAF:

METAR-TAF

机场 :

石油平台

P11-b, 荷兰

纬度: 52-21-36N, 经度: 3-20-30E, 海拔: 24米

当前天气观测

该预报发布于28分钟前的12:25 UTC
风速39节,风向西转西南
温度 10°C
湿度 100%
气压 1006 hPa
能見度: 3600
多云层低于100英尺
多云层高于900英尺
阴天层高于1600英尺
小雨

METAR: EHPG 231225Z AUTO 25039KT 3600 -RA BKN000 BKN009 OVC016 10/10 Q1006

时间: 13:53 (12:53 UTC)


TAF: 丢失

超过4000个机场的气象观测和天气预报(METAR&TAF报告)。

可查询的气象台以黄色和红色小点在地图上表示。

将鼠标移到小点上方,可查看气象台名称。

然后点击查看天气观测和预报。

如需切换地图:点击带黑十字的绿色按钮放大地图;点击带横线的绿色按钮缩小地图;或者点击绿色箭头查看邻近地区的地图。


METAR-TAF: